Pagrindinis puslapis
METAR-TAF:

METAR-TAF

Oro uostai :

Niamėjus, Nigeris

platuma: 13-29N, ilguma: 002-10E, Aukštis: 223 m

Dabartinis oras

Ataskaita buvo paskelbta 37 minutes, ne 08:00 UTC
Vėjas 1 kt nuo kintamojo kryptimis
Temperatūra 30°C
Drėgmė 25%
Slėgis 1013 hPa
Matomumas: 4000 m
dulkės

METAR: DRRN 290800Z VRB01KT 4000 DU NSC 30/08 Q1013 BECMG 6000

Laikas: 09:37 (08:37 UTC)

Prognozė

Ataskaita buvo paskelbta 3 valandos ir 37 minutes, ne 05:00 UTC
Prognozė galioja nuo 29 metu 06 UTC su 30 metu 12 UTC
Vėjas 6 kt iš Rytų/Šiaurės Rytų
Matomumas: 6000 m
Laikinai
nuo 29 metu 06 UTC su 29 metu 10 UTC
Matomumas: 3500 m
dulkės
Laikinai
nuo 29 metu 17 UTC su 29 metu 20 UTC
Matomumas: 4500 m
dulkės

TAF: DRRN 290500Z 2906/3012 06006KT 6000 NSC TEMPO 2906/2910 3500 DU TEMPO 2917/2920 4500 DU

Orai ataskaitas ir orų prognozės (METAR, TAF).

turimą stotys yra geltonos ir raudonos taškus žemėlapyje.

Perkelti pele per norėdami pamatyti stoties vardą.

Tada spustelėkite, norėdami matyti oro stebėjimo ir prognozės.

Norėdami pakeisti žemėlapį: spustelėkite ant žalios mygtukų su juodo kryžiaus žemyn,; žalią mygtuką su brūkšneliu, jei norite nutolinti; arba žalių rodyklių gretimoms žemėlapius.


METAR-TAF: